sensor_id;sensor_type;location;lat;lon;timestamp;P1;P2;P0
72509;PMS5003;60532;56.114;40.350;2023-07-09T00:01:59;10.75;9.50;5.75
72509;PMS5003;60532;56.114;40.350;2023-07-09T00:03:59;10.00;10.00;5.75
72509;PMS5003;60532;56.114;40.350;2023-07-09T00:06:00;9.67;9.67;6.33
72509;PMS5003;60532;56.114;40.350;2023-07-09T00:08:00;12.50;11.00;7.00
72509;PMS5003;60532;56.114;40.350;2023-07-09T00:10:01;10.75;10.75;6.50
72509;PMS5003;60532;56.114;40.350;2023-07-09T00:12:02;10.50;10.00;6.00
72509;PMS5003;60532;56.114;40.350;2023-07-09T00:14:04;11.25;10.25;6.00
72509;PMS5003;60532;56.114;40.350;2023-07-09T00:16:09;8.80;8.00;4.80
72509;PMS5003;60532;56.114;40.350;2023-07-09T00:18:10;10.40;10.20;6.00
72509;PMS5003;60532;56.114;40.350;2023-07-09T00:20:16;12.50;12.50;7.00
72509;PMS5003;60532;56.114;40.350;2023-07-09T00:22:18;8.80;8.80;5.00
72509;PMS5003;60532;56.114;40.350;2023-07-09T00:24:19;11.80;11.20;5.60
72509;PMS5003;60532;56.114;40.350;2023-07-09T00:26:19;8.50;8.50;4.75
72509;PMS5003;60532;56.114;40.350;2023-07-09T00:28:23;8.75;8.75;4.75
72509;PMS5003;60532;56.114;40.350;2023-07-09T00:30:24;8.00;8.00;4.80
72509;PMS5003;60532;56.114;40.350;2023-07-09T00:32:24;9.33;9.33;6.67
72509;PMS5003;60532;56.114;40.350;2023-07-09T00:34:25;8.67;7.33;5.33
72509;PMS5003;60532;56.114;40.350;2023-07-09T00:36:27;9.33;9.33;5.33
72509;PMS5003;60532;56.114;40.350;2023-07-09T00:38:28;10.50;10.50;6.00
72509;PMS5003;60532;56.114;40.350;2023-07-09T00:40:29;8.67;8.67;5.00
72509;PMS5003;60532;56.114;40.350;2023-07-09T00:42:29;10.00;9.00;5.00
72509;PMS5003;60532;56.114;40.350;2023-07-09T00:44:30;9.00;8.00;5.33
72509;PMS5003;60532;56.114;40.350;2023-07-09T00:48:32;8.67;7.00;4.00
72509;PMS5003;60532;56.114;40.350;2023-07-09T00:50:46;7.40;7.40;4.60
72509;PMS5003;60532;56.114;40.350;2023-07-09T00:52:52;9.25;9.25;5.00
72509;PMS5003;60532;56.114;40.350;2023-07-09T00:54:54;10.50;10.00;5.25
72509;PMS5003;60532;56.114;40.350;2023-07-09T00:56:55;8.75;8.75;5.00
72509;PMS5003;60532;56.114;40.350;2023-07-09T00:58:56;6.25;6.25;4.00
72509;PMS5003;60532;56.114;40.350;2023-07-09T01:01:00;7.75;6.25;4.00
72509;PMS5003;60532;56.114;40.350;2023-07-09T01:03:03;8.50;8.00;5.00
72509;PMS5003;60532;56.114;40.350;2023-07-09T01:05:04;8.20;8.20;5.00
72509;PMS5003;60532;56.114;40.350;2023-07-09T01:07:06;8.25;8.25;5.25
72509;PMS5003;60532;56.114;40.350;2023-07-09T01:09:07;9.67;7.33;4.33
72509;PMS5003;60532;56.114;40.350;2023-07-09T01:11:17;9.00;9.00;5.25
72509;PMS5003;60532;56.114;40.350;2023-07-09T01:13:21;7.60;7.20;4.80
72509;PMS5003;60532;56.114;40.350;2023-07-09T01:15:21;6.50;6.50;4.00
72509;PMS5003;60532;56.114;40.350;2023-07-09T01:17:22;9.50;7.50;5.00
72509;PMS5003;60532;56.114;40.350;2023-07-09T01:19:27;7.00;7.00;5.25
72509;PMS5003;60532;56.114;40.350;2023-07-09T01:21:28;8.25;7.50;4.50
72509;PMS5003;60532;56.114;40.350;2023-07-09T01:23:29;8.00;7.00;5.00
72509;PMS5003;60532;56.114;40.350;2023-07-09T01:25:29;8.00;8.00;5.00
72509;PMS5003;60532;56.114;40.350;2023-07-09T01:27:32;8.00;8.00;5.40
72509;PMS5003;60532;56.114;40.350;2023-07-09T01:29:33;7.80;6.40;4.20
72509;PMS5003;60532;56.114;40.350;2023-07-09T01:31:35;9.60;8.40;5.00
72509;PMS5003;60532;56.114;40.350;2023-07-09T01:33:35;7.00;7.00;5.00
72509;PMS5003;60532;56.114;40.350;2023-07-09T01:35:39;7.75;7.00;5.00
72509;PMS5003;60532;56.114;40.350;2023-07-09T01:37:43;10.20;9.20;5.40
72509;PMS5003;60532;56.114;40.350;2023-07-09T01:39:44;7.20;7.20;4.00
72509;PMS5003;60532;56.114;40.350;2023-07-09T01:41:44;7.00;6.00;4.00
72509;PMS5003;60532;56.114;40.350;2023-07-09T01:43:47;8.20;7.20;4.00
72509;PMS5003;60532;56.114;40.350;2023-07-09T01:45:48;8.00;5.75;4.25
72509;PMS5003;60532;56.114;40.350;2023-07-09T01:47:50;6.60;6.60;4.60
72509;PMS5003;60532;56.114;40.350;2023-07-09T01:49:51;6.33;6.33;4.00
72509;PMS5003;60532;56.114;40.350;2023-07-09T01:51:57;9.50;9.25;6.00
72509;PMS5003;60532;56.114;40.350;2023-07-09T01:53:57;7.25;7.25;4.00
72509;PMS5003;60532;56.114;40.350;2023-07-09T01:55:59;8.50;8.50;5.00
72509;PMS5003;60532;56.114;40.350;2023-07-09T01:58:00;8.25;7.50;5.00
72509;PMS5003;60532;56.114;40.350;2023-07-09T02:00:06;9.00;6.50;5.00
72509;PMS5003;60532;56.114;40.350;2023-07-09T02:02:11;6.75;5.50;3.00
72509;PMS5003;60532;56.114;40.350;2023-07-09T02:04:18;6.50;6.50;4.00
72509;PMS5003;60532;56.114;40.350;2023-07-09T02:06:19;9.00;8.00;4.00
72509;PMS5003;60532;56.114;40.350;2023-07-09T02:08:20;8.33;7.67;4.67
72509;PMS5003;60532;56.114;40.350;2023-07-09T02:10:20;9.00;9.00;5.00
72509;PMS5003;60532;56.114;40.350;2023-07-09T02:12:21;8.00;7.00;4.00
72509;PMS5003;60532;56.114;40.350;2023-07-09T02:14:22;7.33;7.33;5.33
72509;PMS5003;60532;56.114;40.350;2023-07-09T02:16:23;5.00;5.00;4.00
72509;PMS5003;60532;56.114;40.350;2023-07-09T02:18:23;8.33;7.33;5.00
72509;PMS5003;60532;56.114;40.350;2023-07-09T02:20:24;6.00;6.00;2.00
72509;PMS5003;60532;56.114;40.350;2023-07-09T02:22:26;8.00;6.25;4.50
72509;PMS5003;60532;56.114;40.350;2023-07-09T02:24:26;7.00;7.00;4.00
72509;PMS5003;60532;56.114;40.350;2023-07-09T02:26:27;6.25;6.25;4.00
72509;PMS5003;60532;56.114;40.350;2023-07-09T02:28:28;7.00;4.67;3.00
72509;PMS5003;60532;56.114;40.350;2023-07-09T02:30:28;7.67;7.67;4.67
72509;PMS5003;60532;56.114;40.350;2023-07-09T02:32:29;9.00;7.00;5.00
72509;PMS5003;60532;56.114;40.350;2023-07-09T02:34:30;9.67;8.00;5.33
72509;PMS5003;60532;56.114;40.350;2023-07-09T02:36:30;7.25;7.00;4.00
72509;PMS5003;60532;56.114;40.350;2023-07-09T02:38:31;7.00;7.00;5.00
72509;PMS5003;60532;56.114;40.350;2023-07-09T02:40:31;6.00;6.00;4.00
72509;PMS5003;60532;56.114;40.350;2023-07-09T02:42:34;7.00;7.00;4.50
72509;PMS5003;60532;56.114;40.350;2023-07-09T02:44:34;6.67;6.67;4.00
72509;PMS5003;60532;56.114;40.350;2023-07-09T02:46:35;8.00;7.67;4.67
72509;PMS5003;60532;56.114;40.350;2023-07-09T02:48:35;5.25;4.25;3.25
72509;PMS5003;60532;56.114;40.350;2023-07-09T02:50:36;7.67;7.67;5.67
72509;PMS5003;60532;56.114;40.350;2023-07-09T02:52:36;6.67;6.00;4.00
72509;PMS5003;60532;56.114;40.350;2023-07-09T02:54:37;5.00;5.00;3.33
72509;PMS5003;60532;56.114;40.350;2023-07-09T02:56:37;7.33;6.00;4.00
72509;PMS5003;60532;56.114;40.350;2023-07-09T02:58:38;7.00;6.67;5.00
72509;PMS5003;60532;56.114;40.350;2023-07-09T03:00:38;5.00;5.00;4.00
72509;PMS5003;60532;56.114;40.350;2023-07-09T03:02:39;3.50;3.50;2.50
72509;PMS5003;60532;56.114;40.350;2023-07-09T03:04:39;5.00;5.00;3.67
72509;PMS5003;60532;56.114;40.350;2023-07-09T03:06:40;5.00;5.00;3.00
72509;PMS5003;60532;56.114;40.350;2023-07-09T03:08:40;6.67;4.00;3.00
72509;PMS5003;60532;56.114;40.350;2023-07-09T03:10:41;4.00;4.00;3.00
72509;PMS5003;60532;56.114;40.350;2023-07-09T03:12:41;7.33;6.67;4.00
72509;PMS5003;60532;56.114;40.350;2023-07-09T03:14:42;5.67;5.67;3.33
72509;PMS5003;60532;56.114;40.350;2023-07-09T03:16:42;4.67;4.33;3.33
72509;PMS5003;60532;56.114;40.350;2023-07-09T03:18:43;6.50;6.00;3.75
72509;PMS5003;60532;56.114;40.350;2023-07-09T03:20:43;5.67;4.67;2.33
72509;PMS5003;60532;56.114;40.350;2023-07-09T03:22:44;5.67;5.00;3.00
72509;PMS5003;60532;56.114;40.350;2023-07-09T03:24:44;6.67;6.67;4.00
72509;PMS5003;60532;56.114;40.350;2023-07-09T03:26:45;7.00;7.00;4.00
72509;PMS5003;60532;56.114;40.350;2023-07-09T03:28:46;5.75;5.75;3.00
72509;PMS5003;60532;56.114;40.350;2023-07-09T03:30:47;7.00;6.33;3.00
72509;PMS5003;60532;56.114;40.350;2023-07-09T03:32:47;5.00;5.00;3.00
72509;PMS5003;60532;56.114;40.350;2023-07-09T03:34:48;7.00;7.00;4.00
72509;PMS5003;60532;56.114;40.350;2023-07-09T03:36:48;8.67;6.00;4.00
72509;PMS5003;60532;56.114;40.350;2023-07-09T03:38:49;6.67;6.67;4.33
72509;PMS5003;60532;56.114;40.350;2023-07-09T03:40:50;3.67;3.67;1.33
72509;PMS5003;60532;56.114;40.350;2023-07-09T03:42:51;5.25;5.25;3.50
72509;PMS5003;60532;56.114;40.350;2023-07-09T03:44:52;4.00;4.00;3.00
72509;PMS5003;60532;56.114;40.350;2023-07-09T03:46:52;6.00;6.00;3.67
72509;PMS5003;60532;56.114;40.350;2023-07-09T03:48:53;8.00;5.00;3.00
72509;PMS5003;60532;56.114;40.350;2023-07-09T03:50:53;10.00;6.67;4.00
72509;PMS5003;60532;56.114;40.350;2023-07-09T03:52:54;8.00;6.33;4.00
72509;PMS5003;60532;56.114;40.350;2023-07-09T03:54:54;9.00;7.00;5.00
72509;PMS5003;60532;56.114;40.350;2023-07-09T03:56:56;6.50;6.00;3.25
72509;PMS5003;60532;56.114;40.350;2023-07-09T03:58:57;5.67;5.67;3.00
72509;PMS5003;60532;56.114;40.350;2023-07-09T04:00:57;8.33;7.00;4.00
72509;PMS5003;60532;56.114;40.350;2023-07-09T04:02:58;8.67;6.00;4.33
72509;PMS5003;60532;56.114;40.350;2023-07-09T04:04:59;6.00;5.75;4.00
72509;PMS5003;60532;56.114;40.350;2023-07-09T04:06:59;5.67;4.33;2.00
72509;PMS5003;60532;56.114;40.350;2023-07-09T04:09:00;6.00;6.00;4.00
72509;PMS5003;60532;56.114;40.350;2023-07-09T04:11:01;5.33;5.33;3.33
72509;PMS5003;60532;56.114;40.350;2023-07-09T04:13:01;6.00;6.00;3.00
72509;PMS5003;60532;56.114;40.350;2023-07-09T04:15:05;4.00;4.00;2.67
72509;PMS5003;60532;56.114;40.350;2023-07-09T04:17:06;7.00;6.00;4.00
72509;PMS5003;60532;56.114;40.350;2023-07-09T04:19:06;6.00;5.00;3.00
72509;PMS5003;60532;56.114;40.350;2023-07-09T04:21:06;6.33;6.33;4.00
72509;PMS5003;60532;56.114;40.350;2023-07-09T04:23:07;8.33;7.00;4.00
72509;PMS5003;60532;56.114;40.350;2023-07-09T04:25:08;6.00;6.00;4.00
72509;PMS5003;60532;56.114;40.350;2023-07-09T04:27:10;6.75;6.75;4.00
72509;PMS5003;60532;56.114;40.350;2023-07-09T04:29:10;6.25;6.25;3.25
72509;PMS5003;60532;56.114;40.350;2023-07-09T04:31:11;7.00;7.00;5.00
72509;PMS5003;60532;56.114;40.350;2023-07-09T04:33:11;7.67;7.00;5.00
72509;PMS5003;60532;56.114;40.350;2023-07-09T04:35:13;5.00;5.00;3.00
72509;PMS5003;60532;56.114;40.350;2023-07-09T04:37:14;6.75;6.00;4.00
72509;PMS5003;60532;56.114;40.350;2023-07-09T04:39:17;7.75;6.75;4.00
72509;PMS5003;60532;56.114;40.350;2023-07-09T04:41:18;5.00;5.00;3.33
72509;PMS5003;60532;56.114;40.350;2023-07-09T04:43:19;6.25;6.25;4.00
72509;PMS5003;60532;56.114;40.350;2023-07-09T04:45:19;9.00;6.00;3.67
72509;PMS5003;60532;56.114;40.350;2023-07-09T04:47:19;8.33;6.67;4.33
72509;PMS5003;60532;56.114;40.350;2023-07-09T04:49:20;4.00;4.00;1.33
72509;PMS5003;60532;56.114;40.350;2023-07-09T04:51:20;3.67;3.67;1.00
72509;PMS5003;60532;56.114;40.350;2023-07-09T04:53:21;9.33;5.33;3.67
72509;PMS5003;60532;56.114;40.350;2023-07-09T04:55:24;4.50;4.50;3.00
72509;PMS5003;60532;56.114;40.350;2023-07-09T04:57:26;6.33;6.33;3.33
72509;PMS5003;60532;56.114;40.350;2023-07-09T04:59:26;8.50;8.00;4.00
72509;PMS5003;60532;56.114;40.350;2023-07-09T05:01:27;6.67;6.67;5.00
72509;PMS5003;60532;56.114;40.350;2023-07-09T05:03:27;6.33;6.00;3.00
72509;PMS5003;60532;56.114;40.350;2023-07-09T05:05:28;7.00;6.00;4.00
72509;PMS5003;60532;56.114;40.350;2023-07-09T05:07:28;7.00;7.00;4.67
72509;PMS5003;60532;56.114;40.350;2023-07-09T05:09:28;9.33;7.00;4.00
72509;PMS5003;60532;56.114;40.350;2023-07-09T05:11:29;6.67;6.67;4.00
72509;PMS5003;60532;56.114;40.350;2023-07-09T05:13:29;5.67;5.67;2.00
72509;PMS5003;60532;56.114;40.350;2023-07-09T05:15:30;6.00;4.00;1.00
72509;PMS5003;60532;56.114;40.350;2023-07-09T05:17:30;7.00;7.00;4.67
72509;PMS5003;60532;56.114;40.350;2023-07-09T05:19:31;8.00;8.00;5.00
72509;PMS5003;60532;56.114;40.350;2023-07-09T05:21:31;10.33;7.67;5.00
72509;PMS5003;60532;56.114;40.350;2023-07-09T05:23:32;9.00;9.00;6.00
72509;PMS5003;60532;56.114;40.350;2023-07-09T05:25:32;7.67;7.67;4.67
72509;PMS5003;60532;56.114;40.350;2023-07-09T05:27:32;2.00;2.00;2.00
72509;PMS5003;60532;56.114;40.350;2023-07-09T05:29:33;8.67;6.00;4.00
72509;PMS5003;60532;56.114;40.350;2023-07-09T05:31:33;6.67;6.67;4.00
72509;PMS5003;60532;56.114;40.350;2023-07-09T05:33:36;6.00;6.00;4.75
72509;PMS5003;60532;56.114;40.350;2023-07-09T05:35:36;7.33;7.00;4.67
72509;PMS5003;60532;56.114;40.350;2023-07-09T05:37:40;10.00;7.00;4.33
72509;PMS5003;60532;56.114;40.350;2023-07-09T05:39:41;10.25;8.00;5.00
72509;PMS5003;60532;56.114;40.350;2023-07-09T05:41:41;9.00;7.00;4.33
72509;PMS5003;60532;56.114;40.350;2023-07-09T05:43:42;9.00;7.00;4.00
72509;PMS5003;60532;56.114;40.350;2023-07-09T05:45:43;8.50;8.50;3.75
72509;PMS5003;60532;56.114;40.350;2023-07-09T05:47:47;7.00;7.00;4.50
72509;PMS5003;60532;56.114;40.350;2023-07-09T05:49:47;8.00;8.00;5.33
72509;PMS5003;60532;56.114;40.350;2023-07-09T05:51:50;6.75;5.25;4.00
72509;PMS5003;60532;56.114;40.350;2023-07-09T05:53:50;7.33;6.33;4.00
72509;PMS5003;60532;56.114;40.350;2023-07-09T05:55:54;6.00;6.00;4.67
72509;PMS5003;60532;56.114;40.350;2023-07-09T05:57:55;8.00;5.00;4.00
72509;PMS5003;60532;56.114;40.350;2023-07-09T05:59:56;8.00;7.50;4.50
72509;PMS5003;60532;56.114;40.350;2023-07-09T06:01:57;11.00;8.00;6.00
72509;PMS5003;60532;56.114;40.350;2023-07-09T06:03:57;8.00;8.00;5.00
72509;PMS5003;60532;56.114;40.350;2023-07-09T06:05:58;6.00;5.00;3.67
72509;PMS5003;60532;56.114;40.350;2023-07-09T06:08:00;11.50;9.50;5.00
72509;PMS5003;60532;56.114;40.350;2023-07-09T06:10:00;9.67;4.33;1.00
72509;PMS5003;60532;56.114;40.350;2023-07-09T06:12:04;15.75;8.25;4.00
72509;PMS5003;60532;56.114;40.350;2023-07-09T06:14:05;12.50;9.25;5.50
72509;PMS5003;60532;56.114;40.350;2023-07-09T06:16:06;9.00;6.67;4.00
72509;PMS5003;60532;56.114;40.350;2023-07-09T06:18:06;9.33;8.67;5.00
72509;PMS5003;60532;56.114;40.350;2023-07-09T06:20:07;5.00;5.00;3.33
72509;PMS5003;60532;56.114;40.350;2023-07-09T06:22:08;10.75;6.75;6.00
72509;PMS5003;60532;56.114;40.350;2023-07-09T06:24:08;10.00;7.33;4.67
72509;PMS5003;60532;56.114;40.350;2023-07-09T06:26:09;14.00;7.00;6.00
72509;PMS5003;60532;56.114;40.350;2023-07-09T06:28:09;5.00;5.00;3.00
72509;PMS5003;60532;56.114;40.350;2023-07-09T06:30:10;12.33;12.00;7.00
72509;PMS5003;60532;56.114;40.350;2023-07-09T06:32:11;14.50;7.25;5.25
72509;PMS5003;60532;56.114;40.350;2023-07-09T06:34:11;11.67;8.00;5.33
72509;PMS5003;60532;56.114;40.350;2023-07-09T06:36:12;13.00;6.67;4.00
72509;PMS5003;60532;56.114;40.350;2023-07-09T06:38:12;12.00;7.00;5.00
72509;PMS5003;60532;56.114;40.350;2023-07-09T06:40:13;11.00;7.67;3.67
72509;PMS5003;60532;56.114;40.350;2023-07-09T06:42:13;10.33;6.00;5.00
72509;PMS5003;60532;56.114;40.350;2023-07-09T06:44:14;10.00;8.33;4.33
72509;PMS5003;60532;56.114;40.350;2023-07-09T06:46:14;10.00;7.00;5.00
72509;PMS5003;60532;56.114;40.350;2023-07-09T06:48:15;10.75;9.75;5.25
72509;PMS5003;60532;56.114;40.350;2023-07-09T06:50:16;11.00;7.00;5.00
72509;PMS5003;60532;56.114;40.350;2023-07-09T06:52:16;13.00;9.00;6.00
72509;PMS5003;60532;56.114;40.350;2023-07-09T06:54:17;13.00;9.00;6.00
72509;PMS5003;60532;56.114;40.350;2023-07-09T06:56:17;19.00;12.00;7.67
72509;PMS5003;60532;56.114;40.350;2023-07-09T06:58:18;24.33;13.00;7.67
72509;PMS5003;60532;56.114;40.350;2023-07-09T07:00:18;36.00;16.67;7.00
72509;PMS5003;60532;56.114;40.350;2023-07-09T07:02:19;31.25;19.25;9.00
72509;PMS5003;60532;56.114;40.350;2023-07-09T07:04:20;25.67;19.00;9.67
72509;PMS5003;60532;56.114;40.350;2023-07-09T07:06:20;18.00;10.33;7.00
72509;PMS5003;60532;56.114;40.350;2023-07-09T07:08:21;23.33;14.00;7.33
72509;PMS5003;60532;56.114;40.350;2023-07-09T07:10:23;22.75;13.50;6.75
72509;PMS5003;60532;56.114;40.350;2023-07-09T07:12:27;14.00;9.33;7.33
72509;PMS5003;60532;56.114;40.350;2023-07-09T07:14:28;12.50;11.75;7.75
72509;PMS5003;60532;56.114;40.350;2023-07-09T07:16:28;16.00;14.67;9.67
72509;PMS5003;60532;56.114;40.350;2023-07-09T07:18:29;21.00;18.33;13.33
72509;PMS5003;60532;56.114;40.350;2023-07-09T07:20:30;14.00;14.00;10.00
72509;PMS5003;60532;56.114;40.350;2023-07-09T07:22:30;17.50;12.50;8.00
72509;PMS5003;60532;56.114;40.350;2023-07-09T07:24:31;20.67;18.00;12.00
72509;PMS5003;60532;56.114;40.350;2023-07-09T07:26:31;25.67;18.00;13.67
72509;PMS5003;60532;56.114;40.350;2023-07-09T07:28:33;20.67;18.33;11.67
72509;PMS5003;60532;56.114;40.350;2023-07-09T07:30:34;21.60;21.60;17.00
72509;PMS5003;60532;56.114;40.350;2023-07-09T07:32:35;26.75;24.25;17.00
72509;PMS5003;60532;56.114;40.350;2023-07-09T07:34:36;14.50;13.00;7.75
72509;PMS5003;60532;56.114;40.350;2023-07-09T07:36:37;14.67;14.67;10.00
72509;PMS5003;60532;56.114;40.350;2023-07-09T07:38:37;18.67;17.33;11.33
72509;PMS5003;60532;56.114;40.350;2023-07-09T07:40:38;14.33;12.33;9.33
72509;PMS5003;60532;56.114;40.350;2023-07-09T07:42:38;15.67;12.67;9.33
72509;PMS5003;60532;56.114;40.350;2023-07-09T07:44:38;12.00;12.00;8.33
72509;PMS5003;60532;56.114;40.350;2023-07-09T07:46:39;9.67;9.67;6.33
72509;PMS5003;60532;56.114;40.350;2023-07-09T07:48:39;10.33;9.33;5.33
72509;PMS5003;60532;56.114;40.350;2023-07-09T07:50:40;9.67;9.67;7.00
72509;PMS5003;60532;56.114;40.350;2023-07-09T07:52:41;8.75;8.00;4.25
72509;PMS5003;60532;56.114;40.350;2023-07-09T07:54:41;3.00;3.00;2.00
72509;PMS5003;60532;56.114;40.350;2023-07-09T07:56:42;8.33;7.00;5.00
72509;PMS5003;60532;56.114;40.350;2023-07-09T07:58:42;8.67;7.00;4.67
72509;PMS5003;60532;56.114;40.350;2023-07-09T08:00:43;6.00;6.00;5.00
72509;PMS5003;60532;56.114;40.350;2023-07-09T08:02:44;5.75;5.75;5.00
72509;PMS5003;60532;56.114;40.350;2023-07-09T08:04:45;7.00;7.00;5.67
72509;PMS5003;60532;56.114;40.350;2023-07-09T08:06:45;7.33;7.33;5.00
72509;PMS5003;60532;56.114;40.350;2023-07-09T08:08:46;9.67;8.67;6.00
72509;PMS5003;60532;56.114;40.350;2023-07-09T08:10:47;13.00;9.33;6.00
72509;PMS5003;60532;56.114;40.350;2023-07-09T08:12:47;11.33;7.00;5.00
72509;PMS5003;60532;56.114;40.350;2023-07-09T08:14:48;9.00;7.33;4.00
72509;PMS5003;60532;56.114;40.350;2023-07-09T08:16:48;6.00;4.00;3.00
72509;PMS5003;60532;56.114;40.350;2023-07-09T08:18:49;15.67;7.67;4.00
72509;PMS5003;60532;56.114;40.350;2023-07-09T08:20:51;14.00;11.00;6.00
72509;PMS5003;60532;56.114;40.350;2023-07-09T08:22:52;13.00;8.33;6.00
72509;PMS5003;60532;56.114;40.350;2023-07-09T08:24:52;7.67;6.00;3.00
72509;PMS5003;60532;56.114;40.350;2023-07-09T08:26:53;5.33;5.33;3.33
72509;PMS5003;60532;56.114;40.350;2023-07-09T08:28:53;11.33;8.00;5.00
72509;PMS5003;60532;56.114;40.350;2023-07-09T08:30:55;12.25;8.50;4.00
72509;PMS5003;60532;56.114;40.350;2023-07-09T08:32:55;13.50;9.00;5.75
72509;PMS5003;60532;56.114;40.350;2023-07-09T08:34:57;20.40;13.00;6.00
72509;PMS5003;60532;56.114;40.350;2023-07-09T08:36:57;17.67;12.33;6.33
72509;PMS5003;60532;56.114;40.350;2023-07-09T08:38:58;11.33;8.33;5.00
72509;PMS5003;60532;56.114;40.350;2023-07-09T08:41:00;11.00;10.00;6.00
72509;PMS5003;60532;56.114;40.350;2023-07-09T08:43:20;10.50;8.00;5.00
72509;PMS5003;60532;56.114;40.350;2023-07-09T08:45:33;11.75;11.00;6.25
72509;PMS5003;60532;56.114;40.350;2023-07-09T08:49:42;22.25;10.00;6.00
72509;PMS5003;60532;56.114;40.350;2023-07-09T08:51:44;14.50;8.75;5.25
72509;PMS5003;60532;56.114;40.350;2023-07-09T08:53:53;10.00;7.50;5.00
72509;PMS5003;60532;56.114;40.350;2023-07-09T08:55:55;12.00;7.00;5.00
72509;PMS5003;60532;56.114;40.350;2023-07-09T08:57:57;11.33;8.67;5.33
72509;PMS5003;60532;56.114;40.350;2023-07-09T09:00:02;11.25;8.75;6.00
72509;PMS5003;60532;56.114;40.350;2023-07-09T09:02:06;12.00;8.75;5.50
72509;PMS5003;60532;56.114;40.350;2023-07-09T09:04:24;11.00;8.00;5.00
72509;PMS5003;60532;56.114;40.350;2023-07-09T09:06:26;12.50;8.50;5.00
72509;PMS5003;60532;56.114;40.350;2023-07-09T09:08:39;12.25;7.25;5.00
72509;PMS5003;60532;56.114;40.350;2023-07-09T09:10:51;8.75;8.00;5.00
72509;PMS5003;60532;56.114;40.350;2023-07-09T09:14:58;8.00;8.00;4.50
72509;PMS5003;60532;56.114;40.350;2023-07-09T09:16:59;9.50;7.50;5.00
72509;PMS5003;60532;56.114;40.350;2023-07-09T09:19:01;10.25;8.50;5.75
72509;PMS5003;60532;56.114;40.350;2023-07-09T09:23:25;9.00;7.50;5.00
72509;PMS5003;60532;56.114;40.350;2023-07-09T09:25:32;10.00;8.75;5.00
72509;PMS5003;60532;56.114;40.350;2023-07-09T09:27:32;6.75;6.75;4.00
72509;PMS5003;60532;56.114;40.350;2023-07-09T09:29:33;8.33;7.67;5.00
72509;PMS5003;60532;56.114;40.350;2023-07-09T09:31:33;9.00;9.00;5.00
72509;PMS5003;60532;56.114;40.350;2023-07-09T09:33:40;7.33;7.33;4.33
72509;PMS5003;60532;56.114;40.350;2023-07-09T09:35:42;7.25;5.75;3.25
72509;PMS5003;60532;56.114;40.350;2023-07-09T09:37:51;7.00;7.00;4.00
72509;PMS5003;60532;56.114;40.350;2023-07-09T09:39:52;6.40;6.40;3.00
72509;PMS5003;60532;56.114;40.350;2023-07-09T09:41:53;6.00;6.00;4.25
72509;PMS5003;60532;56.114;40.350;2023-07-09T09:43:54;7.60;7.60;4.40
72509;PMS5003;60532;56.114;40.350;2023-07-09T09:45:55;7.75;7.00;5.00
72509;PMS5003;60532;56.114;40.350;2023-07-09T09:48:01;8.40;6.60;5.00
72509;PMS5003;60532;56.114;40.350;2023-07-09T09:50:02;5.00;5.00;3.00
72509;PMS5003;60532;56.114;40.350;2023-07-09T09:52:03;4.20;3.60;2.00
72509;PMS5003;60532;56.114;40.350;2023-07-09T09:54:07;6.80;6.80;4.00
72509;PMS5003;60532;56.114;40.350;2023-07-09T09:56:13;7.20;7.20;5.00
72509;PMS5003;60532;56.114;40.350;2023-07-09T09:58:14;7.40;5.40;3.40
72509;PMS5003;60532;56.114;40.350;2023-07-09T10:00:15;7.00;5.75;4.00
72509;PMS5003;60532;56.114;40.350;2023-07-09T10:02:17;4.20;4.20;4.00
72509;PMS5003;60532;56.114;40.350;2023-07-09T10:04:18;7.80;6.00;4.40
72509;PMS5003;60532;56.114;40.350;2023-07-09T10:06:20;6.75;6.75;5.75
72509;PMS5003;60532;56.114;40.350;2023-07-09T10:10:41;8.40;7.00;5.40
72509;PMS5003;60532;56.114;40.350;2023-07-09T10:12:51;6.20;6.20;5.00
72509;PMS5003;60532;56.114;40.350;2023-07-09T10:14:59;10.80;9.20;5.00
72509;PMS5003;60532;56.114;40.350;2023-07-09T10:17:04;7.80;7.80;6.00
72509;PMS5003;60532;56.114;40.350;2023-07-09T10:19:16;8.80;8.60;5.00
72509;PMS5003;60532;56.114;40.350;2023-07-09T10:21:33;7.40;7.00;6.00
72509;PMS5003;60532;56.114;40.350;2023-07-09T10:24:17;8.40;8.40;5.20
72509;PMS5003;60532;56.114;40.350;2023-07-09T10:26:23;10.80;7.00;5.60
72509;PMS5003;60532;56.114;40.350;2023-07-09T10:28:27;11.75;9.00;4.50
72509;PMS5003;60532;56.114;40.350;2023-07-09T10:30:53;13.25;8.00;5.50
72509;PMS5003;60532;56.114;40.350;2023-07-09T10:39:41;12.80;10.40;6.00
72509;PMS5003;60532;56.114;40.350;2023-07-09T10:41:43;8.40;2.80;1.40
72509;PMS5003;60532;56.114;40.350;2023-07-09T10:43:48;7.20;7.20;5.00
72509;PMS5003;60532;56.114;40.350;2023-07-09T10:45:54;18.40;9.80;7.60
72509;PMS5003;60532;56.114;40.350;2023-07-09T10:48:18;12.60;10.40;6.00
72509;PMS5003;60532;56.114;40.350;2023-07-09T10:50:24;9.40;8.40;4.80
72509;PMS5003;60532;56.114;40.350;2023-07-09T10:52:32;20.00;12.00;6.80
72509;PMS5003;60532;56.114;40.350;2023-07-09T10:54:39;11.20;10.20;6.40
72509;PMS5003;60532;56.114;40.350;2023-07-09T10:56:42;13.80;9.80;5.80
72509;PMS5003;60532;56.114;40.350;2023-07-09T11:00:43;15.50;13.50;5.50
72509;PMS5003;60532;56.114;40.350;2023-07-09T11:02:44;13.00;10.25;4.75
72509;PMS5003;60532;56.114;40.350;2023-07-09T11:04:49;15.50;9.50;5.75
72509;PMS5003;60532;56.114;40.350;2023-07-09T11:06:52;17.80;13.80;6.00
72509;PMS5003;60532;56.114;40.350;2023-07-09T11:08:54;13.60;11.60;6.40
72509;PMS5003;60532;56.114;40.350;2023-07-09T11:10:56;11.20;8.00;5.80
72509;PMS5003;60532;56.114;40.350;2023-07-09T11:15:10;8.25;8.25;4.75
72509;PMS5003;60532;56.114;40.350;2023-07-09T11:17:14;6.60;6.60;5.00
72509;PMS5003;60532;56.114;40.350;2023-07-09T11:19:16;9.80;9.20;5.00
72509;PMS5003;60532;56.114;40.350;2023-07-09T11:21:18;14.20;8.60;5.80
72509;PMS5003;60532;56.114;40.350;2023-07-09T11:23:22;6.20;6.00;5.00
72509;PMS5003;60532;56.114;40.350;2023-07-09T11:25:28;7.60;7.60;5.00
72509;PMS5003;60532;56.114;40.350;2023-07-09T11:27:30;8.00;8.00;5.40
72509;PMS5003;60532;56.114;40.350;2023-07-09T11:29:31;12.40;10.20;6.20
72509;PMS5003;60532;56.114;40.350;2023-07-09T11:31:37;9.00;7.80;6.00
72509;PMS5003;60532;56.114;40.350;2023-07-09T11:33:45;6.80;6.40;3.00
72509;PMS5003;60532;56.114;40.350;2023-07-09T11:35:48;9.60;8.60;6.40
72509;PMS5003;60532;56.114;40.350;2023-07-09T11:37:49;7.60;7.20;5.00
72509;PMS5003;60532;56.114;40.350;2023-07-09T11:39:50;7.50;7.50;5.25
72509;PMS5003;60532;56.114;40.350;2023-07-09T11:41:51;8.80;6.60;5.00
72509;PMS5003;60532;56.114;40.350;2023-07-09T11:43:51;8.50;7.00;5.00
72509;PMS5003;60532;56.114;40.350;2023-07-09T11:45:52;7.40;7.40;6.00
72509;PMS5003;60532;56.114;40.350;2023-07-09T11:48:01;8.00;8.00;5.00
72509;PMS5003;60532;56.114;40.350;2023-07-09T11:50:15;7.80;7.80;6.00
72509;PMS5003;60532;56.114;40.350;2023-07-09T11:52:41;8.00;8.00;6.00
72509;PMS5003;60532;56.114;40.350;2023-07-09T11:54:43;7.80;7.80;5.80
72509;PMS5003;60532;56.114;40.350;2023-07-09T11:56:56;15.00;12.00;7.00
72509;PMS5003;60532;56.114;40.350;2023-07-09T11:58:58;9.40;8.00;6.00
72509;PMS5003;60532;56.114;40.350;2023-07-09T12:00:58;7.75;7.75;5.50
72509;PMS5003;60532;56.114;40.350;2023-07-09T12:03:01;7.20;5.40;3.40